Springfield, MO

8:42 AM CST on February 20, 2017 (GMT -0600)
West Springfield | | Change Station

Elev 1230 ft 37.19 °N, 93.36 °W | Updated 3 seconds ago

Overcast
Overcast
59.8 °F
Feels Like 59.8 °F
N
2.0
Wind Variable Wind from ESE
Gusts 8.0 mph

Today
High -- | Low -- °F
--% Chance of Precip.
Yesterday
High -- | Low -- °F
Precip. -- in
Pressure 29.90 in
Visibility 10.0 miles
Clouds Mostly Cloudy 10000 ft
Dew Point 55 °F
Humidity 83%
Rainfall 0.00 in
Snow Depth Not available.
6:55 AM 5:58 PM
Waning Crescent, 33% visible
METAR KSGF 201352Z 15018KT 10SM BKN100 16/12 A2992 RMK AO2 PK WND 15026/1340 PRESRR SLP125 T01560117
Pressure 29.90 in
Visibility 10.0 miles
Clouds Mostly Cloudy 10000 ft
Dew Point 55 °F
Humidity 83%
Rainfall 0.00 in
Snow Depth Not available.
6:55 AM 5:58 PM
Waning Crescent, 33% visible
METAR KSGF 201352Z 15018KT 10SM BKN100 16/12 A2992 RMK AO2 PK WND 15026/1340 PRESRR SLP125 T01560117

Get Your Daily Forecast Email!

Thanks for signing up!

Be on the lookout for a verification email in your inbox.

You'll start receiving the daily forecast at 8 AM.

×

10-Day Weather Forecast

Almanac

Astronomy

Feb. 20, 2017 Rise Set
Actual Time
Civil Twilight
Nautical Twilight
Astronomical Twilight
Moon
Length of Visible Light
Length of Day
Tomorrow will be .
, % of the Moon is Illuminated

Today's Extremes

State Highs State Lows

Community

WunderPhotos

Upload Photos

1,962,540 photos uploaded!

WunderBlog® & News

Nearby

Air Quality

  Air Quality AQ Index Pollutant
Not available.

Snow Depth

Station Depth Elevation

Earthquake Activity

City Distance Mag. Time & Date
Minimum magnitude displayed is 2.5.

Coastal Water Temperatures

Place Temperature

Stations

Nearby Weather Stations

Station Location Temp. Windchill Dew Point Humidity Wind Precip. Elev Updated Type
                   

Watches & Warnings

There are currently no watches in effect.